createdAt,value
2022-10-14T00:00:30.125Z,52.50
2022-10-14T00:02:20.612Z,61.75
2022-10-14T00:04:11.177Z,42.30
2022-10-14T00:06:04.914Z,52.33
2022-10-14T00:07:55.462Z,49.28
2022-10-14T00:09:47.501Z,48.88
2022-10-14T00:11:38.261Z,44.40
2022-10-14T00:13:28.582Z,45.58
2022-10-14T00:15:19.033Z,46.75
2022-10-14T00:17:09.436Z,48.63
2022-10-14T00:19:00.130Z,49.42
2022-10-14T00:20:54.459Z,65.07
2022-10-14T00:22:44.686Z,92.00
2022-10-14T00:24:35.209Z,81.85
2022-10-14T00:26:28.957Z,80.50
2022-10-14T00:28:19.636Z,74.53
2022-10-14T00:30:11.227Z,85.55
2022-10-14T00:32:02.059Z,76.82
2022-10-14T00:33:52.994Z,82.38
2022-10-14T00:35:43.573Z,99.32
2022-10-14T00:37:34.704Z,88.15
2022-10-14T00:39:25.217Z,92.90
2022-10-14T00:41:19.781Z,71.68
2022-10-14T00:43:12.547Z,78.00
2022-10-14T00:45:12.232Z,77.10
2022-10-14T00:47:02.810Z,86.57
2022-10-14T00:48:53.923Z,71.85
2022-10-14T00:50:45.754Z,77.38
2022-10-14T00:52:36.681Z,95.78
2022-10-14T00:54:32.161Z,78.25
2022-10-14T00:56:27.498Z,72.10
2022-10-14T00:58:19.671Z,99.28
2022-10-14T01:02:02.121Z,76.18
2022-10-14T01:03:52.737Z,76.75
2022-10-14T01:05:49.557Z,87.75
2022-10-14T01:07:45.747Z,91.45
2022-10-14T01:09:39.979Z,80.55
2022-10-14T01:11:34.649Z,82.03
2022-10-14T01:13:31.288Z,81.90
2022-10-14T01:15:29.243Z,87.88
2022-10-14T01:17:30.666Z,84.25
2022-10-14T01:19:37.736Z,89.18
2022-10-14T01:21:33.821Z,85.80
2022-10-14T01:23:40.633Z,106.07
2022-10-14T01:25:34.637Z,88.88
2022-10-14T01:27:40.031Z,90.20
2022-10-14T01:30:08.541Z,79.05
2022-10-14T01:32:02.809Z,106.85
2022-10-14T01:33:57.022Z,96.47
2022-10-14T01:35:57.296Z,86.43
2022-10-14T01:37:52.585Z,119.13
2022-10-14T01:39:45.212Z,75.60
2022-10-14T01:41:38.877Z,77.55
2022-10-14T01:43:31.357Z,99.88
2022-10-14T01:45:23.919Z,89.45
2022-10-14T01:47:17.969Z,84.15
2022-10-14T01:49:12.177Z,77.50
2022-10-14T01:51:06.372Z,95.63
2022-10-14T01:53:00.741Z,102.75
2022-10-14T01:54:53.504Z,90.88
2022-10-14T01:56:45.634Z,108.90
2022-10-14T01:58:36.517Z,87.45
2022-10-14T02:00:28.749Z,130.32
2022-10-14T02:02:19.617Z,108.20
2022-10-14T02:04:15.124Z,93.63
2022-10-14T02:06:08.589Z,102.18
2022-10-14T02:08:04.585Z,125.20
2022-10-14T02:10:01.692Z,155.25
2022-10-14T02:11:59.253Z,146.13
2022-10-14T02:14:04.317Z,133.88
2022-10-14T02:16:01.923Z,129.93
2022-10-14T02:17:55.692Z,132.88
2022-10-14T02:19:50.398Z,110.80
2022-10-14T02:21:44.279Z,110.78
2022-10-14T02:23:38.220Z,138.02
2022-10-14T02:25:31.805Z,105.95
2022-10-14T02:27:25.243Z,148.15
2022-10-14T02:29:16.425Z,139.27
2022-10-14T02:31:12.326Z,159.85
2022-10-14T02:33:03.657Z,144.30
2022-10-14T02:34:54.970Z,140.43
2022-10-14T02:36:46.530Z,120.18
2022-10-14T02:38:37.769Z,144.27
2022-10-14T02:40:33.237Z,163.13
2022-10-14T02:42:24.219Z,161.88
2022-10-14T02:44:15.198Z,135.13
2022-10-14T02:46:06.387Z,156.38
2022-10-14T02:47:57.968Z,140.25
2022-10-14T02:49:48.644Z,135.73
2022-10-14T02:51:39.396Z,189.30
2022-10-14T02:53:30.180Z,183.57
2022-10-14T02:55:21.389Z,162.20
2022-10-14T02:57:12.055Z,246.43
2022-10-14T02:59:02.951Z,250.90
2022-10-14T03:00:53.611Z,192.60
2022-10-14T03:02:44.065Z,167.27
2022-10-14T03:04:36.400Z,232.93
2022-10-14T03:06:26.864Z,202.02
2022-10-14T03:08:17.692Z,160.90
2022-10-14T03:10:08.905Z,171.80
2022-10-14T03:11:59.578Z,189.07
2022-10-14T03:13:50.340Z,180.80
2022-10-14T03:15:41.341Z,176.80
2022-10-14T03:17:31.769Z,182.40
2022-10-14T03:19:22.317Z,210.13
2022-10-14T03:21:14.360Z,192.80
2022-10-14T03:23:04.960Z,202.68
2022-10-14T03:24:55.433Z,192.35
2022-10-14T03:26:45.903Z,192.45
2022-10-14T03:28:36.383Z,232.63
2022-10-14T03:30:27.097Z,187.68
2022-10-14T03:32:17.553Z,177.75
2022-10-14T03:34:08.053Z,202.18
2022-10-14T03:35:58.762Z,180.00
2022-10-14T03:37:50.544Z,184.70
2022-10-14T03:39:40.844Z,222.80
2022-10-14T03:41:33.017Z,190.75
2022-10-14T03:43:23.805Z,179.60
2022-10-14T03:45:14.447Z,179.63
2022-10-14T03:47:05.191Z,219.00
2022-10-14T03:48:55.784Z,230.13
2022-10-14T03:50:47.207Z,261.17
2022-10-14T03:52:38.155Z,237.88
2022-10-14T03:54:29.854Z,199.75
2022-10-14T03:58:12.200Z,225.88
2022-10-14T04:00:02.663Z,183.05
2022-10-14T04:01:53.401Z,194.07
2022-10-14T04:03:43.896Z,191.57
2022-10-14T04:05:34.764Z,186.05
2022-10-14T04:07:25.564Z,200.13
2022-10-14T04:09:16.818Z,193.63
2022-10-14T04:11:09.332Z,196.30
2022-10-14T04:14:50.688Z,187.48
2022-10-14T04:16:43.100Z,270.45
2022-10-14T04:18:35.327Z,224.63
2022-10-14T04:20:26.281Z,187.73
2022-10-14T04:22:16.942Z,211.90
2022-10-14T04:24:08.632Z,180.85
2022-10-14T04:25:59.452Z,209.80
2022-10-14T04:27:51.854Z,205.45
2022-10-14T04:29:42.230Z,218.95
2022-10-14T04:31:32.605Z,280.88
2022-10-14T04:33:23.170Z,179.32
2022-10-14T04:35:13.800Z,199.48
2022-10-14T04:37:04.222Z,206.25
2022-10-14T04:38:54.522Z,193.18
2022-10-14T04:40:45.278Z,185.23
2022-10-14T04:42:36.069Z,189.32
2022-10-14T04:44:27.969Z,168.57
2022-10-14T04:46:18.289Z,311.27
2022-10-14T04:48:08.647Z,168.90
2022-10-14T04:49:59.143Z,170.82
2022-10-14T04:51:49.711Z,295.20
2022-10-14T04:53:40.148Z,188.90
2022-10-14T04:55:30.703Z,151.80
2022-10-14T04:57:21.335Z,189.73
2022-10-14T04:59:12.316Z,170.43
2022-10-14T05:01:04.309Z,189.85
2022-10-14T05:02:54.639Z,135.40
2022-10-14T05:04:45.568Z,125.72
2022-10-14T05:06:36.483Z,149.40
2022-10-14T05:08:26.889Z,137.13
2022-10-14T05:10:17.649Z,153.88
2022-10-14T05:12:08.469Z,160.00
2022-10-14T05:13:59.357Z,124.40
2022-10-14T05:15:49.835Z,124.28
2022-10-14T05:17:41.615Z,157.80
2022-10-14T05:19:32.057Z,129.43
2022-10-14T05:21:23.265Z,110.78
2022-10-14T05:23:13.948Z,139.27
2022-10-14T05:25:04.711Z,113.68
2022-10-14T05:26:55.166Z,116.88
2022-10-14T05:28:46.358Z,109.75
2022-10-14T05:30:36.784Z,131.38
2022-10-14T05:32:29.277Z,132.90
2022-10-14T05:34:21.019Z,113.15
2022-10-14T05:36:11.679Z,84.28
2022-10-14T05:38:04.317Z,116.30
2022-10-14T05:39:55.357Z,115.55
2022-10-14T05:41:45.639Z,119.00
2022-10-14T05:43:35.980Z,109.57
2022-10-14T05:45:26.696Z,89.97
2022-10-14T05:47:17.356Z,90.40
2022-10-14T05:49:07.693Z,89.60
2022-10-14T05:50:59.681Z,115.43
2022-10-14T05:52:50.546Z,93.05
2022-10-14T05:54:41.781Z,97.10
2022-10-14T05:56:32.628Z,82.72
2022-10-14T05:58:23.730Z,72.57
2022-10-14T06:00:15.442Z,81.35
2022-10-14T06:02:05.934Z,87.13
2022-10-14T06:03:56.735Z,86.53
2022-10-14T06:05:47.124Z,121.43
2022-10-14T06:07:39.464Z,98.07
2022-10-14T06:09:30.718Z,91.22
2022-10-14T06:11:21.201Z,85.13
2022-10-14T06:13:11.973Z,87.43
2022-10-14T06:15:03.903Z,81.68
2022-10-14T06:16:54.606Z,80.05
2022-10-14T06:18:44.963Z,71.93
2022-10-14T06:20:36.343Z,103.75
2022-10-14T06:22:28.345Z,94.23
2022-10-14T06:24:20.278Z,88.97
2022-10-14T06:26:10.589Z,107.63
2022-10-14T06:28:05.981Z,81.53
2022-10-14T06:29:57.001Z,75.30
2022-10-14T06:31:47.438Z,98.00
2022-10-14T06:33:37.799Z,92.00
2022-10-14T06:35:28.586Z,99.68
2022-10-14T06:37:18.956Z,98.93
2022-10-14T06:39:09.826Z,100.25
2022-10-14T06:41:01.702Z,116.18
2022-10-14T06:42:52.232Z,87.50
2022-10-14T06:44:42.927Z,99.05
2022-10-14T06:46:33.670Z,101.15
2022-10-14T06:48:24.117Z,151.25
2022-10-14T06:50:15.100Z,124.63
2022-10-14T06:52:06.020Z,110.72
2022-10-14T06:53:56.860Z,115.18
2022-10-14T06:55:47.490Z,108.90
2022-10-14T06:57:39.520Z,120.55
2022-10-14T07:01:20.458Z,123.15
2022-10-14T07:03:11.090Z,101.00
2022-10-14T07:05:01.610Z,101.82
2022-10-14T07:06:52.281Z,102.55
2022-10-14T07:08:42.613Z,102.65
2022-10-14T07:10:33.161Z,87.25
2022-10-14T07:12:24.949Z,88.93
2022-10-14T07:14:16.943Z,118.88
2022-10-14T07:16:07.308Z,78.00
2022-10-14T07:17:57.762Z,88.05
2022-10-14T07:19:48.708Z,83.35
2022-10-14T07:21:39.264Z,119.10
2022-10-14T07:23:30.752Z,93.35
2022-10-14T07:25:21.089Z,93.53
2022-10-14T07:27:11.713Z,97.80
2022-10-14T07:29:04.231Z,82.00
2022-10-14T07:31:01.309Z,73.47
2022-10-14T07:32:51.910Z,101.97
2022-10-14T07:34:42.540Z,108.07
2022-10-14T07:36:33.128Z,89.45
2022-10-14T07:38:24.229Z,86.28
2022-10-14T07:40:14.755Z,82.43
2022-10-14T07:42:05.591Z,68.65
2022-10-14T07:43:59.389Z,92.28
2022-10-14T07:45:50.059Z,87.80
2022-10-14T07:47:42.177Z,98.32
2022-10-14T07:49:32.552Z,87.75
2022-10-14T07:51:23.678Z,116.10
2022-10-14T07:53:13.980Z,86.75
2022-10-14T07:55:05.714Z,121.80
2022-10-14T07:56:56.686Z,111.75
2022-10-14T07:58:47.662Z,121.72
2022-10-14T08:00:38.015Z,152.10
2022-10-14T08:02:28.494Z,110.63
2022-10-14T08:04:20.290Z,118.40
2022-10-14T08:06:11.469Z,172.15
2022-10-14T08:08:02.097Z,124.18
2022-10-14T08:09:52.680Z,121.93
2022-10-14T08:11:43.778Z,154.48
2022-10-14T08:13:34.427Z,123.30
2022-10-14T08:15:25.238Z,138.38
2022-10-14T08:17:15.649Z,130.88
2022-10-14T08:19:13.509Z,140.90
2022-10-14T08:21:06.398Z,171.15
2022-10-14T08:24:47.837Z,119.65
2022-10-14T08:26:39.943Z,132.85
2022-10-14T08:28:30.770Z,147.63
2022-10-14T08:30:21.704Z,139.90
2022-10-14T08:32:12.332Z,121.60
2022-10-14T08:34:02.874Z,179.27
2022-10-14T08:35:54.283Z,133.93
2022-10-14T08:37:55.208Z,116.72
2022-10-14T08:39:45.752Z,147.30
2022-10-14T08:41:55.698Z,139.05
2022-10-14T08:43:49.981Z,128.30
2022-10-14T08:45:44.784Z,135.07
2022-10-14T08:47:37.758Z,113.65
2022-10-14T08:49:33.044Z,122.95
2022-10-14T08:51:23.471Z,119.28
2022-10-14T08:53:17.831Z,94.47
2022-10-14T08:55:19.492Z,94.88
2022-10-14T08:57:14.540Z,95.43
2022-10-14T08:59:10.229Z,125.03
2022-10-14T09:01:03.564Z,107.88
2022-10-14T09:02:53.964Z,87.70
2022-10-14T09:04:44.370Z,81.90
2022-10-14T09:06:36.542Z,110.82
2022-10-14T09:08:33.505Z,76.53
2022-10-14T09:10:32.239Z,84.40
2022-10-14T09:12:26.428Z,85.88
2022-10-14T09:14:18.776Z,92.05
2022-10-14T09:16:15.317Z,83.57
2022-10-14T09:18:08.045Z,106.35
2022-10-14T09:20:04.232Z,104.00
2022-10-14T09:21:55.107Z,85.20
2022-10-14T09:23:46.969Z,93.35
2022-10-14T09:25:40.011Z,76.10
2022-10-14T09:27:30.315Z,83.53
2022-10-14T09:29:24.796Z,82.60
2022-10-14T09:31:15.177Z,86.95
2022-10-14T09:33:05.482Z,93.50
2022-10-14T09:34:57.658Z,105.32
2022-10-14T09:36:49.375Z,81.95
2022-10-14T09:38:40.087Z,71.38
2022-10-14T09:40:34.366Z,79.90
2022-10-14T09:42:27.783Z,82.32
2022-10-14T09:44:21.139Z,72.35
2022-10-14T09:46:11.699Z,62.45
2022-10-14T09:48:03.506Z,80.63
2022-10-14T09:51:44.672Z,64.70
2022-10-14T09:53:38.158Z,78.80
2022-10-14T09:55:29.017Z,64.78
2022-10-14T09:57:21.450Z,68.55
2022-10-14T09:59:16.594Z,72.50
2022-10-14T10:01:07.163Z,59.17
2022-10-14T10:02:58.011Z,67.55
2022-10-14T10:04:49.489Z,55.25
2022-10-14T10:06:51.416Z,54.60
2022-10-14T10:08:55.552Z,53.47
2022-10-14T10:10:59.564Z,62.00
2022-10-14T10:12:53.687Z,51.30
2022-10-14T10:14:56.227Z,50.15
2022-10-14T10:16:47.398Z,50.83
2022-10-14T10:18:37.735Z,48.85
2022-10-14T10:20:29.525Z,49.92
2022-10-14T10:22:24.077Z,56.17
2022-10-14T10:24:19.331Z,49.20
2022-10-14T10:26:18.039Z,47.97
2022-10-14T10:28:16.299Z,52.40
2022-10-14T10:30:18.423Z,40.42
2022-10-14T10:32:12.557Z,40.65
2022-10-14T10:34:12.711Z,42.13
2022-10-14T10:38:16.942Z,46.88
2022-10-14T10:40:40.908Z,40.60
2022-10-14T10:42:34.814Z,46.08
2022-10-14T10:44:36.435Z,42.33
2022-10-14T10:46:42.030Z,45.92
2022-10-14T10:48:39.253Z,43.35
2022-10-14T10:50:32.136Z,50.25
2022-10-14T10:52:28.876Z,37.83
2022-10-14T10:54:29.415Z,41.13
2022-10-14T10:56:26.549Z,39.33
2022-10-14T10:58:25.026Z,45.05
2022-10-14T11:00:18.956Z,45.03
2022-10-14T11:02:37.769Z,48.00
2022-10-14T11:04:30.340Z,46.00
2022-10-14T11:06:26.222Z,43.67
2022-10-14T11:08:28.790Z,47.08
2022-10-14T11:12:16.124Z,45.88
2022-10-14T11:14:23.882Z,48.58
2022-10-14T11:16:20.770Z,47.53
2022-10-14T11:18:15.918Z,51.70
2022-10-14T11:20:13.213Z,47.30
2022-10-14T11:22:12.211Z,54.45
2022-10-14T11:24:06.857Z,56.40
2022-10-14T11:26:00.716Z,55.17
2022-10-14T11:27:57.592Z,46.38
2022-10-14T11:30:14.108Z,49.60
2022-10-14T11:32:11.489Z,46.70
2022-10-14T11:34:17.133Z,45.40
2022-10-14T11:36:15.974Z,46.35
2022-10-14T11:38:29.623Z,46.60
2022-10-14T11:40:24.483Z,37.17
2022-10-14T11:42:32.336Z,41.63
2022-10-14T11:44:29.017Z,38.10
2022-10-14T11:46:21.585Z,39.00
2022-10-14T11:48:21.905Z,38.45
2022-10-14T11:50:16.417Z,32.25
2022-10-14T11:52:10.261Z,36.40
2022-10-14T11:54:03.741Z,31.30
2022-10-14T11:56:00.426Z,30.75
2022-10-14T11:57:52.353Z,29.55
2022-10-14T11:59:46.716Z,30.23
2022-10-14T12:01:42.431Z,32.33
2022-10-14T12:03:46.133Z,31.33
2022-10-14T12:05:39.918Z,30.40
2022-10-14T12:07:35.186Z,24.73
2022-10-14T12:09:31.246Z,27.63
2022-10-14T12:11:28.073Z,25.75
2022-10-14T12:13:22.444Z,23.10
2022-10-14T12:15:16.806Z,22.45
2022-10-14T12:17:18.394Z,23.35
2022-10-14T12:19:11.746Z,19.13
2022-10-14T12:21:11.132Z,18.52
2022-10-14T12:23:03.734Z,21.38
2022-10-14T12:24:55.550Z,22.75
2022-10-14T12:26:52.193Z,17.33
2022-10-14T12:28:43.161Z,15.60
2022-10-14T12:30:36.457Z,18.50
2022-10-14T12:32:28.417Z,16.27
2022-10-14T12:34:33.230Z,17.60
2022-10-14T12:36:32.936Z,22.02
2022-10-14T12:38:23.815Z,18.73
2022-10-14T12:40:25.403Z,21.98
2022-10-14T12:42:16.448Z,20.23
2022-10-14T12:44:14.195Z,16.92
2022-10-14T12:46:12.321Z,19.23
2022-10-14T12:48:12.314Z,19.45
2022-10-14T12:50:06.254Z,14.82
2022-10-14T12:51:59.015Z,16.30
2022-10-14T12:53:53.063Z,13.68
2022-10-14T12:55:49.167Z,14.30
2022-10-14T12:57:42.273Z,14.15
2022-10-14T12:59:34.067Z,9.52
2022-10-14T13:01:24.541Z,11.48
2022-10-14T13:03:19.794Z,9.48
2022-10-14T13:05:24.985Z,9.30
2022-10-14T13:07:47.343Z,10.52
2022-10-14T13:09:38.232Z,9.85
2022-10-14T13:11:28.620Z,6.47
2022-10-14T13:13:47.630Z,8.80
2022-10-14T13:15:59.219Z,12.38
2022-10-14T13:17:49.421Z,11.27
2022-10-14T13:19:42.091Z,10.07
2022-10-14T13:21:53.477Z,6.72
2022-10-14T13:23:45.325Z,9.95
2022-10-14T13:25:36.016Z,9.85
2022-10-14T13:27:33.764Z,8.27
2022-10-14T13:29:30.661Z,10.93
2022-10-14T13:31:24.367Z,12.98
2022-10-14T13:33:19.089Z,9.07
2022-10-14T13:35:16.351Z,9.77
2022-10-14T13:37:27.835Z,12.77
2022-10-14T13:39:18.569Z,10.40
2022-10-14T13:41:14.622Z,7.20
2022-10-14T13:43:08.498Z,8.75
2022-10-14T13:45:06.772Z,11.35
2022-10-14T13:46:57.874Z,8.82
2022-10-14T13:48:49.878Z,10.60
2022-10-14T13:50:40.499Z,12.77
2022-10-14T13:52:33.304Z,10.68
2022-10-14T13:54:24.825Z,10.15
2022-10-14T13:56:21.837Z,8.57
2022-10-14T13:58:14.046Z,9.93
2022-10-14T14:00:42.030Z,6.95
2022-10-14T14:02:34.201Z,10.00
2022-10-14T14:04:26.921Z,9.23
2022-10-14T14:06:19.491Z,8.07
2022-10-14T14:10:27.593Z,7.07
2022-10-14T14:12:19.927Z,9.30
2022-10-14T14:14:17.197Z,10.15
2022-10-14T14:16:18.374Z,9.73
2022-10-14T14:18:33.955Z,11.52
2022-10-14T14:20:33.588Z,6.63
2022-10-14T14:22:25.924Z,5.47
2022-10-14T14:26:18.800Z,7.55
2022-10-14T14:28:13.461Z,5.55
2022-10-14T14:30:04.785Z,5.32
2022-10-14T14:32:11.539Z,5.55
2022-10-14T14:34:02.050Z,12.98
2022-10-14T14:35:54.416Z,8.73
2022-10-14T14:39:57.665Z,6.47
2022-10-14T14:41:50.783Z,6.75
2022-10-14T14:43:47.322Z,6.78
2022-10-14T14:45:44.670Z,7.32
2022-10-14T14:47:35.166Z,5.72
2022-10-14T14:49:27.255Z,4.97
2022-10-14T14:51:17.996Z,8.13
2022-10-14T14:53:11.774Z,9.10
2022-10-14T14:55:03.711Z,5.97
2022-10-14T14:57:00.793Z,9.65
2022-10-14T14:58:52.602Z,7.97
2022-10-14T15:00:44.986Z,7.40
2022-10-14T15:02:35.381Z,7.55
2022-10-14T15:04:26.877Z,10.85
2022-10-14T15:06:18.124Z,6.55
2022-10-14T15:08:16.347Z,9.93
2022-10-14T15:10:19.299Z,9.38
2022-10-14T15:12:15.167Z,9.73
2022-10-14T15:14:05.806Z,9.52
2022-10-14T15:15:56.132Z,10.90
2022-10-14T15:17:46.602Z,6.50
2022-10-14T15:19:38.655Z,8.10
2022-10-14T15:21:29.124Z,6.15
2022-10-14T15:23:43.436Z,6.95
2022-10-14T15:25:36.333Z,7.95
2022-10-14T15:27:31.528Z,7.18
2022-10-14T15:29:22.289Z,7.20
2022-10-14T15:31:15.321Z,8.55
2022-10-14T15:33:14.194Z,9.15
2022-10-14T15:35:05.300Z,8.02
2022-10-14T15:36:56.490Z,11.70
2022-10-14T15:38:46.636Z,12.20
2022-10-14T15:40:38.500Z,11.45
2022-10-14T15:42:28.952Z,11.30
2022-10-14T15:44:19.350Z,11.55
2022-10-14T15:46:12.659Z,12.82
2022-10-14T15:48:05.411Z,7.43
2022-10-14T15:49:57.487Z,12.90
2022-10-14T15:51:48.228Z,8.07
2022-10-14T15:53:38.520Z,14.38
2022-10-14T15:55:30.185Z,10.95
2022-10-14T15:57:22.303Z,10.93
2022-10-14T15:59:12.794Z,10.02
2022-10-14T16:01:03.889Z,12.18
2022-10-14T16:02:55.601Z,6.55
2022-10-14T16:05:07.293Z,9.68
2022-10-14T16:06:57.556Z,13.30
2022-10-14T16:08:48.699Z,11.50
2022-10-14T16:10:39.735Z,6.90
2022-10-14T16:12:31.781Z,8.77
2022-10-14T16:14:22.376Z,11.60
2022-10-14T16:16:13.232Z,9.13
2022-10-14T16:18:03.867Z,9.43
2022-10-14T16:19:54.267Z,12.07
2022-10-14T16:21:45.032Z,11.52
2022-10-14T16:23:35.417Z,10.05
2022-10-14T16:25:32.490Z,11.15
2022-10-14T16:27:22.950Z,9.82
2022-10-14T16:29:15.396Z,8.82
2022-10-14T16:31:06.303Z,11.60
2022-10-14T16:32:57.611Z,9.73
2022-10-14T16:34:47.916Z,12.23
2022-10-14T16:36:39.226Z,11.38
2022-10-14T16:38:29.874Z,10.45
2022-10-14T16:40:20.247Z,12.95
2022-10-14T16:42:10.761Z,8.90
2022-10-14T16:44:01.595Z,10.48
2022-10-14T16:45:57.295Z,10.90
2022-10-14T16:47:48.105Z,10.20
2022-10-14T16:49:39.499Z,10.80
2022-10-14T16:51:29.845Z,11.68
2022-10-14T16:53:21.980Z,9.02
2022-10-14T16:55:12.098Z,13.25
2022-10-14T16:57:03.381Z,11.90
2022-10-14T16:58:54.222Z,13.15
2022-10-14T17:00:45.236Z,9.80
2022-10-14T17:02:38.123Z,10.30
2022-10-14T17:04:29.108Z,11.15
2022-10-14T17:06:23.922Z,16.08
2022-10-14T17:08:14.872Z,12.73
2022-10-14T17:10:06.271Z,12.15
2022-10-14T17:11:56.670Z,12.82
2022-10-14T17:13:47.318Z,13.45
2022-10-14T17:15:37.887Z,13.25
2022-10-14T17:17:28.713Z,12.05
2022-10-14T17:19:20.472Z,12.13
2022-10-14T17:21:11.744Z,11.20
2022-10-14T17:23:05.448Z,13.90
2022-10-14T17:24:58.265Z,14.38
2022-10-14T17:26:48.468Z,12.68
2022-10-14T17:28:39.311Z,15.52
2022-10-14T17:30:38.307Z,14.87
2022-10-14T17:32:28.750Z,16.85
2022-10-14T17:34:21.434Z,17.35
2022-10-14T17:36:16.358Z,15.88
2022-10-14T17:38:06.682Z,14.43
2022-10-14T17:39:57.360Z,16.58
2022-10-14T17:41:47.906Z,16.38
2022-10-14T17:43:38.818Z,18.90
2022-10-14T17:45:30.414Z,16.40
2022-10-14T17:47:21.014Z,16.90
2022-10-14T17:49:12.066Z,20.13
2022-10-14T17:51:04.255Z,24.65
2022-10-14T17:52:54.708Z,16.50
2022-10-14T17:54:45.270Z,26.13
2022-10-14T17:56:37.323Z,19.55
2022-10-14T17:58:38.017Z,23.73
2022-10-14T18:00:28.754Z,24.38
2022-10-14T18:02:20.269Z,23.95
2022-10-14T18:04:11.281Z,21.00
2022-10-14T18:06:10.270Z,15.23
2022-10-14T18:08:00.777Z,20.02
2022-10-14T18:09:51.214Z,19.70
2022-10-14T18:13:56.161Z,21.73
2022-10-14T18:15:46.577Z,19.63
2022-10-14T18:17:36.953Z,18.65
2022-10-14T18:19:30.667Z,21.15
2022-10-14T18:21:23.297Z,22.33
2022-10-14T18:23:14.671Z,22.23
2022-10-14T18:25:06.730Z,20.73
2022-10-14T18:28:50.357Z,21.70
2022-10-14T18:30:40.856Z,23.33
2022-10-14T18:32:31.609Z,24.25
2022-10-14T18:34:22.704Z,20.05
2022-10-14T18:36:15.910Z,23.30
2022-10-14T18:38:07.535Z,19.17
2022-10-14T18:39:58.563Z,25.20
2022-10-14T18:41:49.016Z,23.63
2022-10-14T18:43:40.341Z,21.98
2022-10-14T18:45:33.835Z,22.83
2022-10-14T18:47:28.637Z,26.05
2022-10-14T18:49:18.874Z,28.67
2022-10-14T18:51:10.342Z,23.45
2022-10-14T18:53:01.363Z,28.90
2022-10-14T18:54:53.683Z,25.95
2022-10-14T18:58:35.597Z,29.58
2022-10-14T19:00:26.413Z,27.88
2022-10-14T19:02:19.118Z,31.27
2022-10-14T19:04:14.480Z,30.02
2022-10-14T19:06:07.013Z,31.80
2022-10-14T19:07:57.795Z,29.60
2022-10-14T19:09:48.142Z,27.73
2022-10-14T19:11:40.183Z,31.45
2022-10-14T19:13:30.855Z,32.58
2022-10-14T19:15:21.608Z,29.58
2022-10-14T19:17:16.541Z,33.13
2022-10-14T19:19:09.156Z,32.10
2022-10-14T19:21:06.490Z,35.25
2022-10-14T19:22:56.993Z,33.83
2022-10-14T19:24:49.715Z,31.08
2022-10-14T19:26:44.442Z,30.60
2022-10-14T19:28:35.200Z,30.73
2022-10-14T19:30:26.232Z,31.77
2022-10-14T19:32:16.844Z,35.47
2022-10-14T19:34:09.985Z,35.47
2022-10-14T19:36:01.967Z,35.13
2022-10-14T19:37:52.730Z,34.30
2022-10-14T19:39:43.243Z,39.00
2022-10-14T19:41:35.788Z,40.50
2022-10-14T19:45:18.249Z,32.17
2022-10-14T19:47:08.810Z,36.60
2022-10-14T19:49:01.044Z,31.73
2022-10-14T19:52:45.113Z,33.53
2022-10-14T19:54:35.669Z,37.75
2022-10-14T19:56:27.024Z,41.00
2022-10-14T19:58:17.373Z,40.10
2022-10-14T20:00:10.985Z,33.47
2022-10-14T20:02:01.428Z,31.25
2022-10-14T20:03:52.648Z,32.28
2022-10-14T20:05:44.563Z,34.80
2022-10-14T20:07:34.806Z,37.90
2022-10-14T20:09:27.351Z,38.17
2022-10-14T20:11:27.280Z,33.15
2022-10-14T20:13:18.041Z,36.55
2022-10-14T20:15:11.478Z,32.38
2022-10-14T20:17:03.358Z,38.65
2022-10-14T20:20:47.053Z,39.80
2022-10-14T20:22:37.747Z,40.10
2022-10-14T20:24:32.048Z,42.10
2022-10-14T20:28:16.883Z,38.15
2022-10-14T20:30:08.957Z,35.40
2022-10-14T20:32:00.750Z,37.53
2022-10-14T20:33:51.610Z,41.53
2022-10-14T20:35:42.168Z,38.63
2022-10-14T20:37:33.160Z,35.65
2022-10-14T20:39:27.438Z,35.65
2022-10-14T20:41:19.793Z,31.90
2022-10-14T20:43:10.417Z,30.08
2022-10-14T20:45:01.459Z,32.97
2022-10-14T20:46:53.219Z,33.67
2022-10-14T20:48:45.424Z,37.22
2022-10-14T20:50:35.791Z,29.45
2022-10-14T20:52:26.477Z,31.92
2022-10-14T20:54:17.289Z,25.65
2022-10-14T20:56:09.943Z,34.10
2022-10-14T20:58:00.606Z,30.30
2022-10-14T20:59:50.854Z,25.02
2022-10-14T21:01:41.656Z,28.35
2022-10-14T21:03:31.984Z,26.05
2022-10-14T21:05:24.326Z,30.10
2022-10-14T21:07:15.122Z,28.42
2022-10-14T21:09:05.876Z,30.52
2022-10-14T21:10:59.531Z,27.67
2022-10-14T21:12:49.829Z,26.58
2022-10-14T21:14:40.350Z,31.98
2022-10-14T21:16:31.985Z,27.33
2022-10-14T21:18:23.105Z,27.90
2022-10-14T21:20:13.397Z,32.40
2022-10-14T21:22:05.057Z,31.58
2022-10-14T21:23:55.665Z,31.20
2022-10-14T21:25:53.961Z,33.58
2022-10-14T21:27:44.720Z,28.83
2022-10-14T21:29:35.033Z,27.13
2022-10-14T21:31:25.494Z,26.73
2022-10-14T21:33:16.159Z,29.60
2022-10-14T21:35:07.560Z,37.60
2022-10-14T21:36:58.352Z,31.00
2022-10-14T21:38:50.824Z,31.17
2022-10-14T21:40:41.155Z,31.27
2022-10-14T21:42:31.416Z,36.83
2022-10-14T21:44:22.013Z,34.97
2022-10-14T21:46:14.163Z,36.13
2022-10-14T21:48:05.329Z,34.65
2022-10-14T21:49:56.354Z,32.33
2022-10-14T21:51:46.677Z,38.13
2022-10-14T21:53:39.524Z,37.80
2022-10-14T21:55:31.257Z,33.20
2022-10-14T21:57:21.954Z,32.65
2022-10-14T21:59:12.624Z,39.90
2022-10-14T22:01:05.388Z,40.03
2022-10-14T22:02:55.933Z,39.63
2022-10-14T22:04:46.684Z,35.53
2022-10-14T22:06:37.208Z,39.42
2022-10-14T22:08:31.183Z,38.22
2022-10-14T22:10:21.470Z,45.97
2022-10-14T22:12:13.526Z,36.58
2022-10-14T22:14:05.853Z,37.47
2022-10-14T22:15:56.366Z,35.63
2022-10-14T22:17:46.766Z,43.22
2022-10-14T22:19:36.987Z,37.97
2022-10-14T22:21:29.258Z,47.03
2022-10-14T22:25:10.766Z,50.80
2022-10-14T22:27:01.075Z,44.78
2022-10-14T22:28:58.645Z,48.28
2022-10-14T22:30:49.450Z,41.67
2022-10-14T22:32:39.790Z,52.53
2022-10-14T22:34:30.041Z,50.72
2022-10-14T22:36:23.881Z,46.17
2022-10-14T22:38:14.658Z,46.22
2022-10-14T22:40:05.991Z,43.63
2022-10-14T22:41:56.736Z,45.78
2022-10-14T22:43:47.790Z,45.65
2022-10-14T22:45:39.743Z,52.47
2022-10-14T22:47:30.043Z,51.20
2022-10-14T22:49:20.740Z,47.85
2022-10-14T22:51:13.293Z,50.38
2022-10-14T22:53:03.812Z,45.08
2022-10-14T22:54:54.762Z,49.10
2022-10-14T22:56:45.257Z,44.72
2022-10-14T22:58:35.812Z,48.35
2022-10-14T23:00:26.656Z,48.78
2022-10-14T23:02:19.664Z,52.70
2022-10-14T23:04:11.075Z,49.40
2022-10-14T23:06:02.863Z,52.35
2022-10-14T23:07:53.502Z,49.03
2022-10-14T23:09:43.827Z,50.08
2022-10-14T23:11:34.239Z,50.63
2022-10-14T23:13:24.627Z,46.08
2022-10-14T23:15:14.972Z,49.72
2022-10-14T23:17:05.654Z,54.28
2022-10-14T23:18:58.059Z,53.80
2022-10-14T23:22:39.126Z,54.75
2022-10-14T23:24:29.866Z,55.03
2022-10-14T23:26:21.883Z,55.10
2022-10-14T23:28:12.431Z,53.70
2022-10-14T23:30:02.947Z,54.95
2022-10-14T23:31:53.214Z,49.33
2022-10-14T23:33:43.749Z,50.35
2022-10-14T23:35:35.612Z,53.53
2022-10-14T23:37:26.349Z,52.95
2022-10-14T23:39:16.636Z,62.42
2022-10-14T23:41:08.553Z,56.90
2022-10-14T23:42:59.164Z,56.65
2022-10-14T23:44:49.655Z,55.95
2022-10-14T23:46:40.004Z,57.28
2022-10-14T23:48:30.238Z,54.42
2022-10-14T23:50:20.938Z,61.92
2022-10-14T23:52:13.111Z,60.35
2022-10-14T23:54:04.110Z,58.72
2022-10-14T23:55:55.531Z,53.33
2022-10-14T23:57:45.885Z,50.15
2022-10-14T23:59:36.455Z,65.47
